Time;durP1;ratioP1;P1;durP2;ratioP2;P2;SDS_P1;SDS_P2;PMS_P1;PMS_P2;Temp;Humidity;BMP_temperature;BMP_pressure;BME280_temperature;BME280_humidity;BME280_pressure;Samples;Min_cycle;Max_cycle;Signal;HPM_P1;HPM_P2
2022/02/09 00:01:13;;;;;;;5.43;1.57;;;7.70;1.00;;;;;;5011228;28;20262;-77
2022/02/09 00:03:50;;;;;;;2.10;0.90;;;7.40;1.00;;;;;;5010961;28;20303;-76
2022/02/09 00:06:36;;;;;;;3.73;1.43;;;7.40;1.00;;;;;;5010553;28;20203;-79
2022/02/09 00:09:03;;;;;;;2.13;1.13;;;7.40;1.00;;;;;;5010586;28;20208;-77
2022/02/09 00:11:38;;;;;;;4.87;1.70;;;7.60;1.00;;;;;;5011121;28;20637;-74
2022/02/09 00:14:14;;;;;;;6.07;3.07;;;7.60;1.00;;;;;;5010464;28;20203;-74
2022/02/09 00:17:03;;;;;;;3.03;1.60;;;7.40;1.00;;;;;;5010569;28;20204;-85
2022/02/09 00:19:35;;;;;;;1.57;1.10;;;7.40;1.00;;;;;;5010522;28;20739;-75
2022/02/09 00:22:18;;;;;;;2.47;1.10;;;7.10;1.00;;;;;;5010415;28;20208;-75
2022/02/09 00:25:06;;;;;;;8.80;2.87;;;7.40;1.00;;;;;;5010720;28;20222;-74
2022/02/09 00:27:58;;;;;;;3.63;1.10;;;7.50;1.00;;;;;;5010731;28;20263;-74
2022/02/09 00:30:59;;;;;;;3.40;1.90;;;7.20;1.00;;;;;;5010405;28;20296;-76
2022/02/09 00:34:04;;;;;;;2.60;1.27;;;7.40;1.00;;;;;;5010468;28;20234;-74
2022/02/09 00:42:35;;;;;;;2.17;1.27;;;7.80;1.00;;;;;;5102745;28;20208;-73
2022/02/09 00:58:39;;;;;;;3.17;1.10;;;7.50;1.00;;;;;;5108428;28;20204;-73
2022/02/09 01:40:42;;;;;;;7.20;1.83;;;5.90;1.00;;;;;;5107280;28;20582;-71
2022/02/09 01:57:10;;;;;;;2.90;1.20;;;5.90;1.00;;;;;;5093948;28;20211;-72
2022/02/09 01:59:37;;;;;;;2.73;1.20;;;6.00;1.00;;;;;;5093855;28;20251;-72
2022/02/09 02:02:07;;;;;;;4.70;1.23;;;6.00;1.00;;;;;;5093460;28;20201;-83
2022/02/09 02:04:34;;;;;;;4.20;1.60;;;5.80;1.00;;;;;;5093642;28;20255;-72
2022/02/09 02:07:04;;;;;;;7.60;2.77;;;5.60;1.00;;;;;;5093611;28;20210;-73
2022/02/09 02:09:34;;;;;;;2.53;1.53;;;5.50;1.00;;;;;;5093478;28;20662;-73
2022/02/09 02:12:09;;;;;;;3.03;1.63;;;5.50;1.00;;;;;;5093027;28;20205;-72
2022/02/09 02:14:41;;;;;;;3.67;2.17;;;5.40;1.00;;;;;;5093417;28;20552;-78
2022/02/09 02:17:15;;;;;;;2.00;1.53;;;5.40;1.00;;;;;;5092767;28;20212;-74
2022/02/09 02:19:46;;;;;;;2.23;1.27;;;5.90;1.00;;;;;;5093340;28;20289;-74
2022/02/09 02:22:33;;;;;;;2.27;1.50;;;5.90;1.00;;;;;;5093019;28;20263;-74
2022/02/09 02:28:13;;;;;;;1.80;1.10;;;5.90;1.00;;;;;;5083923;28;20347;-76
2022/02/09 02:31:13;;;;;;;2.53;1.40;;;5.70;1.00;;;;;;5093020;28;20561;-76
2022/02/09 02:33:58;;;;;;;1.83;1.40;;;5.70;1.00;;;;;;5093138;28;20197;-75
2022/02/09 02:36:53;;;;;;;3.87;1.40;;;5.70;1.00;;;;;;5092958;28;20209;-76
2022/02/09 02:56:47;;;;;;;10.07;2.23;;;5.60;1.00;;;;;;5030671;28;20242;-73
2022/02/09 02:59:20;;;;;;;3.87;1.23;;;5.90;1.00;;;;;;5092652;28;20240;-76
2022/02/09 03:13:00;;;;;;;3.90;1.40;;;5.90;1.00;;;;;;5056067;28;20212;-74
2022/02/09 03:15:38;;;;;;;6.80;1.43;;;5.90;1.00;;;;;;5092486;28;20205;-72
2022/02/09 03:18:37;;;;;;;3.60;1.30;;;6.10;1.00;;;;;;5091629;28;20244;-72
2022/02/09 03:21:15;;;;;;;5.13;2.20;;;6.10;1.00;;;;;;5091922;28;20201;-75
2022/02/09 03:23:47;;;;;;;6.00;1.93;;;6.10;1.00;;;;;;5092066;28;20733;-75
2022/02/09 03:42:53;;;;;;;3.57;1.57;;;5.70;1.00;;;;;;5091899;28;20209;-78
2022/02/09 03:48:28;;;;;;;4.20;2.00;;;5.30;1.00;;;;;;5091219;28;20242;-77
2022/02/09 03:53:53;;;;;;;3.87;1.87;;;5.50;1.00;;;;;;5084313;28;20217;-77
2022/02/09 03:56:30;;;;;;;4.83;1.70;;;5.40;1.00;;;;;;5070965;28;20210;-77
2022/02/09 03:58:57;;;;;;;3.17;1.77;;;5.50;1.00;;;;;;5071529;28;20328;-77
2022/02/09 04:01:30;;;;;;;2.77;1.33;;;5.60;1.00;;;;;;5071199;28;20217;-73
2022/02/09 04:03:57;;;;;;;2.33;1.40;;;5.70;1.00;;;;;;5071416;28;20251;-73
2022/02/09 04:06:24;;;;;;;3.90;1.60;;;5.80;1.00;;;;;;5071063;28;20202;-73
2022/02/09 04:08:56;;;;;;;2.73;1.43;;;5.80;1.00;;;;;;5071160;28;20207;-73
2022/02/09 04:11:27;;;;;;;3.10;1.50;;;5.70;1.00;;;;;;5070602;28;20205;-73
2022/02/09 04:14:04;;;;;;;4.10;1.77;;;5.80;1.00;;;;;;5071059;28;20208;-74
2022/02/09 04:16:43;;;;;;;4.93;1.90;;;5.90;1.00;;;;;;5070783;28;20243;-74
2022/02/09 04:19:21;;;;;;;3.03;1.20;;;5.60;1.00;;;;;;5070613;28;20240;-76
2022/02/09 04:38:20;;;;;;;4.40;1.67;;;5.50;1.00;;;;;;5070283;28;20233;-77
2022/02/09 04:43:46;;;;;;;3.67;1.53;;;5.80;1.00;;;;;;5070809;28;20290;-72
2022/02/09 04:49:12;;;;;;;6.83;2.10;;;5.80;1.00;;;;;;5059552;28;20697;-71
2022/02/09 04:51:57;;;;;;;3.27;1.67;;;5.70;1.00;;;;;;5070547;28;20276;-73
2022/02/09 04:54:31;;;;;;;5.77;1.40;;;5.80;1.00;;;;;;5070284;28;20654;-72
2022/02/09 04:57:01;;;;;;;1.70;1.23;;;5.70;1.00;;;;;;5079604;28;20203;-71
2022/02/09 04:59:37;;;;;;;4.53;1.67;;;5.60;1.00;;;;;;5083197;28;20249;-71
2022/02/09 05:02:37;;;;;;;2.63;1.20;;;5.50;1.00;;;;;;5090148;28;20208;-71
2022/02/09 05:05:37;;;;;;;2.40;2.20;;;5.60;1.00;;;;;;5090333;28;20190;-71
2022/02/09 05:24:41;;;;;;;5.97;1.93;;;5.50;1.00;;;;;;5090850;28;20212;-71
2022/02/09 05:27:18;;;;;;;2.87;2.03;;;5.50;1.00;;;;;;5093586;28;20263;-71
2022/02/09 05:29:45;;;;;;;7.07;2.97;;;5.40;1.00;;;;;;5093939;28;20248;-71
2022/02/09 05:32:12;;;;;;;8.20;1.93;;;5.40;1.00;;;;;;5093542;28;20681;-71
2022/02/09 05:34:39;;;;;;;3.80;1.63;;;5.60;1.00;;;;;;5093579;28;20661;-72
2022/02/09 05:37:08;;;;;;;4.60;1.80;;;5.50;1.00;;;;;;5093255;28;20201;-71
2022/02/09 05:39:35;;;;;;;3.07;1.70;;;5.40;1.00;;;;;;5093739;28;20278;-71
2022/02/09 05:42:07;;;;;;;4.27;2.20;;;5.50;1.00;;;;;;5093641;28;20255;-72
2022/02/09 05:44:34;;;;;;;2.27;1.30;;;5.60;1.00;;;;;;5093436;28;20205;-72
2022/02/09 05:47:42;;;;;;;4.00;2.23;;;5.40;1.00;;;;;;5093950;28;20209;-72
2022/02/09 05:50:03;;;;;;;4.40;1.77;;;5.60;1.00;;;;;;5093475;28;20205;-71
2022/02/09 05:52:44;;;;;;;6.20;2.10;;;5.60;1.00;;;;;;5089959;28;20263;-75
2022/02/09 05:55:34;;;;;;;3.90;1.50;;;5.50;1.00;;;;;;5093185;28;20205;-73
2022/02/09 05:58:09;;;;;;;2.93;2.00;;;5.60;1.00;;;;;;5093324;28;20209;-70
2022/02/09 06:00:36;;;;;;;4.17;2.30;;;5.40;1.00;;;;;;5092913;28;20200;-70
2022/02/09 06:03:03;;;;;;;3.80;2.27;;;5.50;1.00;;;;;;5078829;28;20214;-70
2022/02/09 06:05:31;;;;;;;2.97;1.60;;;5.50;1.00;;;;;;5093059;28;20209;-76
2022/02/09 06:07:59;;;;;;;5.17;2.40;;;5.40;1.00;;;;;;5093837;28;20654;-80
2022/02/09 06:10:30;;;;;;;7.17;2.20;;;5.50;1.00;;;;;;5084534;28;20267;-78
2022/02/09 06:13:12;;;;;;;3.77;2.40;;;5.50;1.00;;;;;;5088697;28;20201;-70
2022/02/09 06:21:07;;;;;;;6.80;1.97;;;5.60;1.00;;;;;;5092826;28;20208;-71
2022/02/09 06:23:36;;;;;;;3.23;2.00;;;5.60;1.00;;;;;;5092855;28;20254;-83
2022/02/09 06:26:04;;;;;;;5.70;2.13;;;5.60;1.00;;;;;;5080207;28;20210;-73
2022/02/09 06:28:31;;;;;;;3.47;1.90;;;5.60;1.00;;;;;;5091499;28;20251;-81
2022/02/09 06:30:58;;;;;;;6.83;3.80;;;5.60;1.00;;;;;;5093312;28;20734;-82
2022/02/09 06:33:25;;;;;;;6.93;1.90;;;5.90;1.00;;;;;;5078754;28;20214;-72
2022/02/09 06:35:54;;;;;;;3.90;2.10;;;5.80;1.00;;;;;;5092912;28;20209;-73
2022/02/09 06:38:22;;;;;;;5.07;2.77;;;5.70;1.00;;;;;;5089397;28;20222;-81
2022/02/09 06:40:53;;;;;;;5.80;2.17;;;5.60;1.00;;;;;;5082347;28;20237;-71
2022/02/09 06:43:21;;;;;;;4.10;2.43;;;5.80;1.00;;;;;;5092528;28;20213;-78
2022/02/09 06:45:48;;;;;;;7.33;2.07;;;5.60;1.00;;;;;;5093223;28;20210;-73
2022/02/09 06:48:17;;;;;;;4.73;2.03;;;5.60;1.00;;;;;;5092141;28;20205;-71
2022/02/09 06:50:48;;;;;;;5.90;1.80;;;5.40;1.00;;;;;;5092452;28;20213;-71
2022/02/09 06:53:29;;;;;;;2.50;1.43;;;5.40;1.00;;;;;;5092066;28;20206;-72
2022/02/09 06:55:59;;;;;;;3.93;2.00;;;5.60;1.00;;;;;;5092814;28;20288;-71
2022/02/09 07:01:24;;;;;;;5.30;2.60;;;5.40;1.00;;;;;;5108257;27;20550;-73
2022/02/09 07:03:51;;;;;;;7.73;2.00;;;5.40;1.00;;;;;;5068122;28;20206;-72
2022/02/09 07:06:18;;;;;;;7.47;2.70;;;5.30;1.00;;;;;;5094306;28;20204;-72
2022/02/09 07:08:45;;;;;;;5.17;2.43;;;5.40;1.00;;;;;;5094987;28;20613;-71
2022/02/09 07:11:12;;;;;;;5.20;1.70;;;5.50;1.00;;;;;;5108569;28;20622;-86
2022/02/09 07:13:39;;;;;;;7.63;2.50;;;5.70;1.00;;;;;;5094567;28;20200;-72
2022/02/09 07:16:06;;;;;;;6.47;2.13;;;5.70;1.00;;;;;;5095891;28;20665;-72
2022/02/09 07:18:36;;;;;;;8.77;2.07;;;5.60;1.00;;;;;;5102255;28;20205;-76
2022/02/09 07:21:08;;;;;;;3.37;2.10;;;5.70;1.00;;;;;;5088168;28;20237;-74
2022/02/09 07:23:40;;;;;;;7.00;2.37;;;5.80;1.00;;;;;;5093167;28;20572;-84
2022/02/09 07:26:11;;;;;;;6.10;2.27;;;5.90;1.00;;;;;;5108357;28;20201;-71
2022/02/09 07:28:39;;;;;;;4.17;2.17;;;5.90;1.00;;;;;;5107620;28;20300;-78
2022/02/09 07:31:08;;;;;;;3.87;2.20;;;5.90;1.00;;;;;;5095999;28;20218;-73
2022/02/09 07:33:37;;;;;;;4.97;2.67;;;6.30;1.00;;;;;;5105808;28;20289;-72
2022/02/09 07:36:05;;;;;;;3.57;2.10;;;6.60;1.00;;;;;;5107423;28;20209;-77
2022/02/09 07:38:32;;;;;;;7.90;2.90;;;7.20;1.00;;;;;;5103776;28;20263;-83
2022/02/09 07:41:00;;;;;;;7.43;3.63;;;7.80;1.00;;;;;;5101744;28;20228;-72
2022/02/09 07:43:39;;;;;;;7.03;2.40;;;7.70;1.00;;;;;;5092009;28;20198;-80
2022/02/09 07:46:31;;;;;;;5.90;2.30;;;8.80;1.00;;;;;;5087227;28;20201;-72
2022/02/09 07:49:08;;;;;;;11.13;3.50;;;8.90;1.00;;;;;;5083780;28;20205;-71
2022/02/09 07:51:43;;;;;;;7.57;2.20;;;9.30;1.00;;;;;;5100546;28;20205;-70
2022/02/09 07:54:11;;;;;;;4.50;2.47;;;9.10;1.00;;;;;;5106952;28;20213;-70
2022/02/09 07:56:40;;;;;;;5.30;2.17;;;8.80;1.00;;;;;;5107431;28;20250;-70
2022/02/09 07:59:09;;;;;;;5.73;2.00;;;9.60;1.00;;;;;;5106731;28;20243;-71
2022/02/09 08:01:37;;;;;;;4.50;2.40;;;8.20;1.00;;;;;;5106624;28;20273;-73
2022/02/09 08:04:06;;;;;;;7.93;2.30;;;7.90;1.00;;;;;;5091573;28;20205;-70
2022/02/09 08:06:34;;;;;;;5.23;2.13;;;7.80;1.00;;;;;;5086778;28;20266;-69
2022/02/09 08:09:06;;;;;;;4.27;2.97;;;7.50;1.00;;;;;;5091471;28;20634;-76
2022/02/09 08:11:39;;;;;;;4.50;2.10;;;7.60;1.00;;;;;;5076948;28;20263;-75
2022/02/09 08:27:57;;;;;;;11.27;2.60;;;9.50;1.00;;;;;;5073458;28;20205;-76
2022/02/09 08:30:46;;;;;;;5.73;2.70;;;9.30;1.00;;;;;;5067688;28;20206;-78
2022/02/09 08:33:18;;;;;;;5.83;2.30;;;9.60;1.00;;;;;;5072824;28;20241;-76
2022/02/09 08:35:47;;;;;;;4.67;3.00;;;10.70;1.00;;;;;;5072644;28;20206;-74
2022/02/09 08:38:15;;;;;;;6.83;2.80;;;9.30;1.00;;;;;;5070693;28;20210;-78
2022/02/09 08:40:43;;;;;;;7.87;2.23;;;9.10;1.00;;;;;;5082218;28;20275;-73
2022/02/09 08:43:11;;;;;;;8.50;2.97;;;9.20;1.00;;;;;;5088565;28;20210;-75
2022/02/09 08:45:38;;;;;;;8.10;2.53;;;8.70;1.00;;;;;;5059652;28;20293;-70
2022/02/09 08:48:05;;;;;;;7.50;3.57;;;9.50;1.00;;;;;;5072670;28;20206;-71
2022/02/09 08:50:33;;;;;;;8.33;2.93;;;9.70;1.00;;;;;;5078219;28;20197;-79
2022/02/09 08:53:02;;;;;;;8.20;2.57;;;9.60;1.00;;;;;;5076119;28;20205;-73
2022/02/09 08:55:29;;;;;;;4.20;2.00;;;9.70;1.00;;;;;;5076027;28;20197;-74
2022/02/09 08:57:56;;;;;;;7.13;2.73;;;9.90;1.00;;;;;;5083903;28;20712;-78
2022/02/09 09:00:26;;;;;;;7.13;2.70;;;10.20;1.00;;;;;;5083352;28;20649;-77
2022/02/09 09:03:05;;;;;;;3.97;1.97;;;10.10;1.00;;;;;;5088189;28;20282;-74
2022/02/09 09:05:42;;;;;;;6.27;4.47;;;10.00;1.00;;;;;;5077932;28;20265;-78
2022/02/09 09:08:23;;;;;;;6.73;2.50;;;10.30;1.00;;;;;;5073893;28;20194;-75
2022/02/09 09:11:11;;;;;;;6.30;2.23;;;10.10;1.00;;;;;;5081568;28;20290;-80
2022/02/09 09:25:07;;;;;;;8.13;3.73;;;11.50;1.00;;;;;;5091898;28;20216;-77
2022/02/09 09:58:20;;;;;;;5.57;3.90;;;15.60;1.00;;;;;;5070964;28;20231;-79
2022/02/09 10:03:49;;;;;;;7.10;5.00;;;14.80;1.00;;;;;;5085456;28;20213;-76
2022/02/09 10:32:08;;;;;;;4.88;3.67;;;18.40;1.00;;;;;;5051428;28;20221;-80
2022/02/09 10:34:37;;;;;;;5.63;4.03;;;18.10;1.00;;;;;;5069900;28;20632;-82
2022/02/09 10:37:06;;;;;;;7.13;3.60;;;17.80;1.00;;;;;;5069525;28;20213;-74
2022/02/09 10:39:47;;;;;;;7.85;4.68;;;16.10;1.00;;;;;;5068938;28;20202;-80
2022/02/09 10:42:18;;;;;;;8.15;4.43;;;13.50;1.00;;;;;;5069081;28;20217;-82
2022/02/09 10:44:48;;;;;;;10.88;3.92;;;12.90;1.00;;;;;;5066730;28;20673;-74
2022/02/09 10:47:24;;;;;;;5.47;3.92;;;12.90;1.00;;;;;;5070651;28;20657;-76
2022/02/09 10:50:10;;;;;;;8.13;4.00;;;12.80;1.00;;;;;;5056937;28;20268;-80
2022/02/09 10:52:40;;;;;;;11.80;3.97;;;12.80;1.00;;;;;;5064191;28;20229;-76
2022/02/09 10:55:26;;;;;;;8.63;5.07;;;12.90;1.00;;;;;;5075334;28;20198;-75
2022/02/09 10:57:53;;;;;;;7.50;4.35;;;13.00;1.00;;;;;;5083897;28;20288;-83
2022/02/09 11:00:20;;;;;;;6.82;5.28;;;13.10;1.00;;;;;;5074684;28;20713;-82
2022/02/09 11:02:50;;;;;;;6.95;4.10;;;13.10;1.00;;;;;;5070735;28;20262;-76
2022/02/09 11:05:19;;;;;;;8.43;4.35;;;13.10;1.00;;;;;;5083894;28;20201;-80
2022/02/09 11:07:47;;;;;;;4.93;3.63;;;13.00;1.00;;;;;;5075184;28;20276;-83
2022/02/09 11:10:15;;;;;;;5.53;4.45;;;12.80;1.00;;;;;;5069286;28;20276;-81
2022/02/09 11:12:42;;;;;;;8.52;3.95;;;12.90;1.00;;;;;;5072937;28;20206;-82
2022/02/09 11:15:11;;;;;;;12.30;4.40;;;13.20;1.00;;;;;;5090423;28;20274;-76
2022/02/09 11:17:45;;;;;;;11.23;5.75;;;13.10;1.00;;;;;;5077017;28;20212;-79
2022/02/09 11:20:13;;;;;;;10.20;4.95;;;12.90;1.00;;;;;;5071687;28;20218;-79
2022/02/09 11:22:42;;;;;;;6.95;4.60;;;13.00;1.00;;;;;;5073292;28;20322;-81
2022/02/09 11:25:14;;;;;;;8.38;4.22;;;13.10;1.00;;;;;;5089822;28;20556;-75
2022/02/09 11:27:48;;;;;;;7.28;5.60;;;13.20;1.00;;;;;;5085814;28;20214;-76
2022/02/09 11:30:24;;;;;;;6.82;4.60;;;13.40;1.00;;;;;;5082235;28;20205;-80
2022/02/09 11:33:11;;;;;;;9.55;4.82;;;13.30;1.00;;;;;;5084022;28;20293;-76
2022/02/09 11:36:15;;;;;;;9.80;5.20;;;13.50;1.00;;;;;;5068793;28;20233;-79
2022/02/09 11:38:47;;;;;;;7.38;3.67;;;13.40;1.00;;;;;;5069858;28;20674;-79
2022/02/09 11:41:18;;;;;;;7.25;3.40;;;13.20;1.00;;;;;;5063591;28;20218;-81
2022/02/09 11:43:57;;;;;;;4.70;3.45;;;13.30;1.00;;;;;;5076336;28;20205;-76
2022/02/09 11:47:16;;;;;;;7.90;3.30;;;13.70;1.00;;;;;;5078708;28;20252;-81
2022/02/09 11:52:52;;;;;;;7.32;3.55;;;13.80;1.00;;;;;;5085027;28;20201;-78
2022/02/09 11:58:55;;;;;;;7.85;2.97;;;14.20;1.00;;;;;;5077189;28;20613;-75
2022/02/09 12:01:50;;;;;;;5.82;3.55;;;14.00;1.00;;;;;;5065647;28;20275;-75
2022/02/09 12:10:19;;;;;;;4.82;3.70;;;13.70;1.00;;;;;;5092026;28;20224;-77
2022/02/09 12:12:57;;;;;;;8.07;3.75;;;13.80;1.00;;;;;;5093633;28;20676;-84
2022/02/09 12:15:52;;;;;;;6.30;3.75;;;14.00;1.00;;;;;;5087960;28;20198;-78
2022/02/09 12:18:28;;;;;;;8.65;4.95;;;14.00;1.00;;;;;;5075900;28;20202;-77
2022/02/09 12:21:03;;;;;;;7.68;4.70;;;14.00;1.00;;;;;;5076096;28;20228;-83
2022/02/09 12:23:39;;;;;;;6.28;3.00;;;14.10;1.00;;;;;;5083777;28;20203;-81
2022/02/09 12:26:11;;;;;;;6.18;3.53;;;14.00;1.00;;;;;;5075202;28;20254;-75
2022/02/09 12:28:40;;;;;;;5.28;3.53;;;14.20;1.00;;;;;;5080298;28;20738;-77
2022/02/09 12:31:08;;;;;;;7.47;3.85;;;14.40;1.00;;;;;;5074612;28;20210;-76
2022/02/09 12:33:40;;;;;;;12.85;4.72;;;14.40;1.00;;;;;;5069371;28;20210;-74
2022/02/09 12:36:16;;;;;;;5.88;3.22;;;14.60;1.00;;;;;;5061233;28;20210;-76
2022/02/09 12:38:46;;;;;;;7.22;4.53;;;14.70;1.00;;;;;;5070517;28;20198;-76
2022/02/09 12:41:16;;;;;;;8.73;3.95;;;14.30;1.00;;;;;;5054234;28;20304;-78
2022/02/09 12:43:55;;;;;;;9.65;4.00;;;14.40;1.00;;;;;;5069004;28;20255;-81
2022/02/09 12:46:24;;;;;;;9.18;3.95;;;14.50;1.00;;;;;;5072915;28;20206;-84
2022/02/09 12:48:51;;;;;;;7.13;3.47;;;14.60;1.00;;;;;;5073072;28;20256;-85
2022/02/09 12:51:27;;;;;;;5.20;3.03;;;14.70;1.00;;;;;;5053342;28;20210;-83
2022/02/09 12:53:56;;;;;;;8.15;3.58;;;14.40;1.00;;;;;;5099737;27;20225;-84
2022/02/09 12:56:25;;;;;;;7.47;4.28;;;14.30;1.00;;;;;;5060448;28;20199;-85
2022/02/09 12:59:01;;;;;;;5.75;3.47;;;14.50;1.00;;;;;;5062584;28;20267;-81
2022/02/09 13:01:40;;;;;;;9.48;3.88;;;14.50;1.00;;;;;;5063949;28;20225;-83
2022/02/09 13:04:07;;;;;;;5.43;3.33;;;14.50;1.00;;;;;;5065364;28;20209;-81
2022/02/09 13:06:34;;;;;;;7.80;3.63;;;14.50;1.00;;;;;;5064555;28;20260;-82
2022/02/09 13:09:03;;;;;;;7.13;3.58;;;14.40;1.00;;;;;;5070285;28;20203;-81
2022/02/09 13:11:32;;;;;;;9.90;3.65;;;14.40;1.00;;;;;;5064579;28;20267;-79
2022/02/09 13:14:07;;;;;;;6.45;3.45;;;14.50;1.00;;;;;;5053142;28;20207;-78
2022/02/09 13:16:55;;;;;;;6.35;3.30;;;14.20;1.00;;;;;;5057590;28;20202;-83
2022/02/09 13:19:42;;;;;;;8.65;3.60;;;14.50;1.00;;;;;;5075718;28;20233;-83
2022/02/09 13:22:35;;;;;;;4.07;3.05;;;14.50;1.00;;;;;;5060848;28;20222;-80
2022/02/09 14:11:05;;;;;;;4.53;2.63;;;14.70;1.00;;;;;;5076380;28;20668;-78
2022/02/09 14:13:50;;;;;;;9.00;4.15;;;14.80;1.00;;;;;;5080054;28;20198;-78
2022/02/09 14:47:06;;;;;;;8.43;3.60;;;14.90;1.00;;;;;;5071071;28;20576;-80
2022/02/09 14:52:36;;;;;;;6.80;3.50;;;14.70;1.00;;;;;;5080052;28;20214;-81
2022/02/09 14:55:18;;;;;;;6.13;3.35;;;14.60;1.00;;;;;;5077784;28;20285;-79
2022/02/09 14:57:59;;;;;;;6.60;3.63;;;14.50;1.00;;;;;;5081598;28;20202;-82
2022/02/09 15:00:26;;;;;;;4.93;3.50;;;14.60;1.00;;;;;;5079664;28;20256;-78
2022/02/09 15:03:07;;;;;;;6.97;3.75;;;14.70;1.00;;;;;;5084076;28;20310;-81
2022/02/09 15:08:19;;;;;;;5.93;3.75;;;14.70;1.00;;;;;;5081976;28;20567;-77
2022/02/09 15:10:52;;;;;;;6.70;3.53;;;14.80;1.00;;;;;;5089278;28;20270;-78
2022/02/09 15:13:35;;;;;;;10.73;3.20;;;14.60;1.00;;;;;;5073430;28;20302;-79
2022/02/09 15:16:11;;;;;;;4.85;3.53;;;14.50;1.00;;;;;;5083741;28;20198;-77
2022/02/09 15:21:36;;;;;;;7.25;4.18;;;14.60;1.00;;;;;;5063606;28;20266;-81
2022/02/09 15:24:04;;;;;;;5.72;3.45;;;14.60;1.00;;;;;;5080331;28;20294;-79
2022/02/09 15:26:33;;;;;;;7.60;4.40;;;14.70;1.00;;;;;;5090526;28;20210;-78
2022/02/09 15:29:00;;;;;;;5.35;3.53;;;14.60;1.00;;;;;;5084231;28;20292;-77
2022/02/09 15:31:35;;;;;;;7.07;3.17;;;14.60;1.00;;;;;;5073546;28;20210;-79
2022/02/09 15:34:15;;;;;;;7.88;3.65;;;14.40;1.00;;;;;;5068749;28;20228;-76
2022/02/09 15:36:56;;;;;;;8.23;3.63;;;14.30;1.00;;;;;;5092020;28;20215;-79
2022/02/09 15:39:24;;;;;;;4.93;3.30;;;14.20;1.00;;;;;;5090799;28;20308;-80
2022/02/09 15:42:06;;;;;;;5.28;3.47;;;14.20;1.00;;;;;;5073285;28;20237;-79
2022/02/09 15:58:45;;;;;;;8.35;4.70;;;14.00;1.00;;;;;;5075661;28;20245;-76
2022/02/09 16:09:30;;;;;;;6.63;3.80;;;13.80;1.00;;;;;;5077786;28;20224;-79
2022/02/09 16:18:37;;;;;;;5.25;4.07;;;13.60;1.00;;;;;;5072956;28;20214;-73
2022/02/09 16:23:44;;;;;;;6.15;4.13;;;13.50;1.00;;;;;;5092868;28;20787;-78
2022/02/09 16:37:39;;;;;;;7.57;4.60;;;13.00;1.00;;;;;;5085762;28;20364;-76
2022/02/09 16:45:46;;;;;;;7.82;4.28;;;12.80;1.00;;;;;;5086525;28;20312;-77
2022/02/09 16:48:15;;;;;;;6.00;3.85;;;12.70;1.00;;;;;;5078062;28;20247;-73
2022/02/09 16:50:49;;;;;;;6.53;4.28;;;12.60;1.00;;;;;;5077445;28;20634;-76
2022/02/09 16:53:33;;;;;;;10.45;4.55;;;12.60;1.00;;;;;;5089773;28;20205;-78
2022/02/09 16:56:27;;;;;;;7.15;4.75;;;12.50;1.00;;;;;;5083826;28;20760;-78
2022/02/09 17:15:42;;;;;;;8.55;5.25;;;11.90;1.00;;;;;;5091727;28;20262;-72
2022/02/09 17:20:53;;;;;;;8.87;5.20;;;11.70;1.00;;;;;;5074947;28;20217;-72
2022/02/09 17:23:20;;;;;;;9.93;5.03;;;11.50;1.00;;;;;;5070537;28;20230;-73
2022/02/09 17:25:47;;;;;;;6.87;5.00;;;11.50;1.00;;;;;;5081208;28;20206;-72
2022/02/09 17:28:17;;;;;;;6.90;5.07;;;11.60;1.00;;;;;;5086327;28;20673;-71
2022/02/09 17:31:15;;;;;;;8.87;5.57;;;11.50;1.00;;;;;;5091915;28;20284;-77
2022/02/09 17:34:02;;;;;;;8.93;5.20;;;11.50;1.00;;;;;;5077232;28;20202;-75
2022/02/09 17:36:43;;;;;;;9.77;5.80;;;11.30;1.00;;;;;;5079950;28;20575;-72
2022/02/09 17:39:24;;;;;;;14.33;6.17;;;11.30;1.00;;;;;;5077495;28;20209;-79
2022/02/09 17:55:57;;;;;;;12.03;6.47;;;10.90;1.00;;;;;;5062564;28;20217;-80
2022/02/09 17:58:30;;;;;;;11.00;7.03;;;10.90;1.00;;;;;;5072734;28;20294;-73
2022/02/09 18:00:58;;;;;;;10.53;7.37;;;10.80;1.00;;;;;;5071989;28;20249;-74
2022/02/09 18:03:29;;;;;;;9.20;6.53;;;10.70;1.00;;;;;;5091015;28;20245;-72
2022/02/09 18:06:07;;;;;;;9.67;6.43;;;10.70;1.00;;;;;;5085590;28;20281;-73
2022/02/09 18:08:40;;;;;;;8.47;6.77;;;10.60;1.00;;;;;;5082783;28;20254;-73
2022/02/09 18:11:18;;;;;;;9.27;6.60;;;10.60;1.00;;;;;;5078012;28;20205;-71
2022/02/09 18:30:23;;;;;;;10.23;5.73;;;10.30;1.00;;;;;;5073753;28;20285;-77
2022/02/09 18:33:07;;;;;;;9.63;6.20;;;10.30;1.00;;;;;;5071392;28;20288;-76
2022/02/09 18:38:50;;;;;;;6.17;5.63;;;10.20;1.00;;;;;;5087883;28;20640;-71
2022/02/09 18:44:14;;;;;;;14.33;8.10;;;10.20;1.00;;;;;;5087079;28;20205;-71
2022/02/09 18:47:00;;;;;;;19.40;9.73;;;10.20;1.00;;;;;;5090610;28;20209;-71
2022/02/09 19:03:26;;;;;;;12.93;7.47;;;10.00;1.00;;;;;;5035453;28;21201;-71
2022/02/09 19:05:56;;;;;;;15.63;8.80;;;9.90;1.00;;;;;;5068501;28;20242;-69
2022/02/09 19:08:35;;;;;;;7.53;6.67;;;9.90;1.00;;;;;;5069133;28;20214;-70
2022/02/09 19:16:46;;;;;;;8.40;6.80;;;9.90;1.00;;;;;;5068583;28;20212;-69
2022/02/09 19:19:35;;;;;;;16.63;7.10;;;9.80;1.00;;;;;;5070322;28;20212;-71
2022/02/09 19:47:18;;;;;;;8.50;6.83;;;9.70;1.00;;;;;;5050167;28;20206;-76
2022/02/09 19:52:38;;;;;;;17.20;10.00;;;9.60;1.00;;;;;;5054977;28;20268;-70
2022/02/09 19:55:20;;;;;;;14.00;9.30;;;9.70;1.00;;;;;;5069817;28;20689;-71
2022/02/09 19:57:50;;;;;;;11.93;7.43;;;9.60;1.00;;;;;;5070464;28;20198;-71
2022/02/09 20:00:21;;;;;;;21.27;11.63;;;9.50;1.00;;;;;;5070018;28;20233;-73
2022/02/09 20:02:48;;;;;;;13.10;8.80;;;9.40;1.00;;;;;;5070222;28;20607;-71
2022/02/09 20:05:15;;;;;;;14.93;7.50;;;9.50;1.00;;;;;;5069576;28;20728;-71
2022/02/09 20:07:43;;;;;;;17.73;8.27;;;9.40;1.00;;;;;;5063975;28;20631;-70
2022/02/09 20:10:12;;;;;;;12.10;7.67;;;9.30;1.00;;;;;;5061344;28;20678;-70
2022/02/09 20:12:40;;;;;;;10.73;6.67;;;9.30;1.00;;;;;;5067476;28;20199;-71
2022/02/09 20:15:12;;;;;;;16.13;7.37;;;9.30;1.00;;;;;;5073508;28;20554;-77
2022/02/09 20:17:40;;;;;;;8.93;7.20;;;9.40;1.00;;;;;;5073691;28;20279;-75
2022/02/09 20:20:11;;;;;;;17.80;9.20;;;9.30;1.00;;;;;;5072909;28;20205;-80
2022/02/09 20:22:38;;;;;;;12.53;7.73;;;9.40;1.00;;;;;;5073660;28;20233;-78
2022/02/09 20:25:06;;;;;;;12.93;8.40;;;9.40;1.00;;;;;;5073151;28;20280;-77
2022/02/09 20:27:35;;;;;;;12.13;6.83;;;9.30;1.00;;;;;;5073379;28;20206;-74
2022/02/09 20:30:05;;;;;;;16.23;8.70;;;9.40;1.00;;;;;;5073169;28;20696;-75
2022/02/09 20:32:38;;;;;;;13.53;7.27;;;9.30;1.00;;;;;;5073536;28;20210;-76
2022/02/09 20:35:09;;;;;;;12.23;5.93;;;9.20;1.00;;;;;;5072782;28;20289;-71
2022/02/09 20:37:41;;;;;;;19.93;7.17;;;9.20;1.00;;;;;;5073134;28;20652;-72
2022/02/09 20:40:13;;;;;;;11.03;6.67;;;9.20;1.00;;;;;;5073048;28;20214;-72
2022/02/09 20:42:50;;;;;;;8.27;5.93;;;9.30;1.00;;;;;;5073007;28;20269;-73
2022/02/09 20:45:22;;;;;;;13.23;7.40;;;9.30;1.00;;;;;;5072705;28;20680;-70
2022/02/09 20:47:57;;;;;;;9.67;6.83;;;9.30;1.00;;;;;;5072233;28;20210;-76
2022/02/09 20:50:25;;;;;;;12.97;7.57;;;9.10;1.00;;;;;;5073552;28;20576;-79
2022/02/09 20:52:52;;;;;;;14.43;7.00;;;8.90;1.00;;;;;;5070025;28;20206;-72
2022/02/09 20:55:21;;;;;;;12.13;8.07;;;9.00;1.00;;;;;;5064390;28;20206;-76
2022/02/09 20:57:49;;;;;;;10.73;6.73;;;8.90;1.00;;;;;;5061574;28;20236;-73
2022/02/09 21:00:23;;;;;;;12.03;8.20;;;8.90;1.00;;;;;;5060060;28;20211;-75
2022/02/09 21:02:55;;;;;;;11.50;7.87;;;8.90;1.00;;;;;;5059089;28;20973;-79
2022/02/09 21:10:57;;;;;;;11.90;7.13;;;8.90;1.00;;;;;;5068123;28;20214;-73
2022/02/09 21:13:34;;;;;;;11.13;6.03;;;9.00;1.00;;;;;;5072456;28;20202;-78
2022/02/09 21:16:14;;;;;;;9.30;6.50;;;9.00;1.00;;;;;;5071570;28;20202;-78
2022/02/09 21:19:16;;;;;;;7.10;5.13;;;9.00;1.00;;;;;;5072367;28;20209;-79
2022/02/09 21:27:49;;;;;;;11.67;6.23;;;8.90;1.00;;;;;;5052193;28;20263;-73
2022/02/09 21:52:36;;;;;;;10.77;6.87;;;8.60;1.00;;;;;;5051320;28;20209;-73
2022/02/09 21:55:20;;;;;;;12.90;6.70;;;8.70;1.00;;;;;;5051383;28;20213;-74
2022/02/09 21:57:55;;;;;;;8.63;6.40;;;8.60;1.00;;;;;;5051578;28;20199;-73
2022/02/09 22:00:37;;;;;;;9.40;5.00;;;8.60;1.00;;;;;;5051150;28;20222;-71
2022/02/09 22:19:10;;;;;;;10.87;5.10;;;8.60;1.00;;;;;;5051176;28;20201;-73
2022/02/09 22:19:56;;;;;;;14.87;5.60;;;8.90;1.00;;;;;;5051229;28;20207;-72
2022/02/09 22:22:39;;;;;;;10.03;4.77;;;8.70;1.00;;;;;;5050886;28;20207;-75
2022/02/09 22:28:09;;;;;;;12.63;5.33;;;8.60;1.00;;;;;;4989356;28;20700;-75
2022/02/09 22:55:40;;;;;;;7.30;4.33;;;8.40;1.00;;;;;;5050928;28;20201;-72
2022/02/09 22:58:10;;;;;;;15.10;4.63;;;8.50;1.00;;;;;;5050369;28;20230;-72
2022/02/09 23:03:40;;;;;;;11.77;5.80;;;8.60;1.00;;;;;;5044952;28;20234;-71
2022/02/09 23:17:57;;;;;;;7.07;5.53;;;8.60;1.00;;;;;;5044602;28;20210;-72
2022/02/09 23:26:14;;;;;;;12.73;5.43;;;8.40;1.00;;;;;;5050563;28;20233;-72
2022/02/09 23:54:04;;;;;;;7.37;4.17;;;8.40;1.00;;;;;;5054159;28;20202;-73
2022/02/09 23:57:05;;;;;;;12.23;6.63;;;8.30;1.00;;;;;;5053982;28;20210;-73
